createdAt,value
2022-08-17T00:01:52.107Z,50.53
2022-08-17T00:04:21.682Z,50.54
2022-08-17T00:06:50.448Z,50.56
2022-08-17T00:09:19.478Z,50.44
2022-08-17T00:12:35.476Z,50.72
2022-08-17T00:14:38.082Z,50.57
2022-08-17T00:17:08.256Z,50.74
2022-08-17T00:19:36.414Z,50.70
2022-08-17T00:22:33.653Z,50.61
2022-08-17T00:24:54.764Z,50.39
2022-08-17T00:27:22.748Z,50.53
2022-08-17T00:29:50.586Z,50.41
2022-08-17T00:33:14.542Z,50.58
2022-08-17T00:35:10.710Z,50.75
2022-08-17T00:37:39.066Z,50.68
2022-08-17T00:40:08.468Z,50.77
2022-08-17T00:42:36.980Z,50.72
2022-08-17T00:45:06.055Z,50.69
2022-08-17T00:47:35.291Z,50.79
2022-08-17T00:50:03.558Z,50.86
2022-08-17T00:52:36.238Z,50.84
2022-08-17T00:55:07.160Z,50.91
2022-08-17T00:57:39.960Z,50.59
2022-08-17T01:00:12.578Z,50.71
2022-08-17T01:02:46.047Z,51.10
2022-08-17T01:05:20.696Z,51.38
2022-08-17T01:07:51.124Z,51.36
2022-08-17T01:10:59.577Z,50.87
2022-08-17T01:13:11.306Z,51.12
2022-08-17T01:15:48.680Z,51.07
2022-08-17T01:18:18.121Z,51.07
2022-08-17T01:20:49.713Z,50.34
2022-08-17T01:23:21.292Z,50.85
2022-08-17T01:25:51.209Z,51.53
2022-08-17T01:28:52.372Z,50.95
2022-08-17T01:31:09.489Z,51.05
2022-08-17T01:33:38.383Z,51.49
2022-08-17T01:36:08.056Z,51.75
2022-08-17T01:38:38.048Z,51.66
2022-08-17T01:41:09.501Z,51.67
2022-08-17T01:43:44.403Z,51.78
2022-08-17T01:46:16.941Z,53.17
2022-08-17T01:48:47.349Z,53.07
2022-08-17T01:51:16.605Z,52.46
2022-08-17T01:53:49.393Z,51.94
2022-08-17T01:56:22.808Z,52.67
2022-08-17T01:58:50.982Z,52.68
2022-08-17T02:01:24.766Z,52.35
2022-08-17T02:03:59.396Z,52.21
2022-08-17T02:06:43.982Z,52.91
2022-08-17T02:09:23.282Z,52.99
2022-08-17T02:11:53.322Z,53.86
2022-08-17T02:14:23.353Z,53.06
2022-08-17T02:16:51.334Z,52.68
2022-08-17T02:19:19.411Z,53.06
2022-08-17T02:21:50.233Z,53.13
2022-08-17T02:24:59.329Z,53.10
2022-08-17T02:27:10.766Z,53.40
2022-08-17T02:29:38.739Z,53.34
2022-08-17T02:32:07.028Z,52.23
2022-08-17T02:34:35.168Z,52.82
2022-08-17T02:37:03.034Z,52.63
2022-08-17T02:39:32.255Z,52.35
2022-08-17T02:42:04.790Z,52.63
2022-08-17T02:44:39.405Z,52.48
2022-08-17T02:47:09.621Z,52.53
2022-08-17T02:49:37.878Z,53.73
2022-08-17T02:52:07.611Z,55.44
2022-08-17T02:54:40.718Z,53.69
2022-08-17T02:57:10.289Z,53.91
2022-08-17T02:59:38.871Z,53.62
2022-08-17T03:02:08.186Z,53.43
2022-08-17T03:04:36.340Z,53.67
2022-08-17T03:07:05.654Z,53.43
2022-08-17T03:09:33.828Z,53.45
2022-08-17T03:12:07.059Z,53.57
2022-08-17T03:14:41.287Z,53.97
2022-08-17T03:17:10.965Z,53.54
2022-08-17T03:19:45.478Z,53.18
2022-08-17T03:22:36.438Z,53.13
2022-08-17T03:25:02.036Z,53.32
2022-08-17T03:27:31.400Z,53.63
2022-08-17T03:29:59.365Z,53.94
2022-08-17T03:32:27.589Z,53.74
2022-08-17T03:34:59.319Z,53.10
2022-08-17T03:37:28.017Z,54.64
2022-08-17T03:39:55.940Z,54.39
2022-08-17T03:42:32.448Z,53.22
2022-08-17T03:45:03.296Z,53.09
2022-08-17T03:48:01.351Z,53.34
2022-08-17T03:50:58.691Z,53.98
2022-08-17T03:53:43.476Z,54.59
2022-08-17T03:56:29.808Z,54.90
2022-08-17T03:58:57.737Z,54.46
2022-08-17T04:01:27.881Z,54.08
2022-08-17T04:03:56.465Z,54.01
2022-08-17T04:06:24.377Z,53.91
2022-08-17T04:08:52.176Z,54.57
2022-08-17T04:11:20.553Z,54.73
2022-08-17T04:13:48.400Z,54.70
2022-08-17T04:16:16.784Z,54.20
2022-08-17T04:18:46.317Z,54.70
2022-08-17T04:21:14.209Z,54.23
2022-08-17T04:23:42.058Z,54.39
2022-08-17T04:26:11.509Z,54.68
2022-08-17T04:28:59.814Z,55.09
2022-08-17T04:31:28.542Z,54.33
2022-08-17T04:33:57.806Z,54.76
2022-08-17T04:36:25.653Z,54.51
2022-08-17T04:38:53.785Z,54.95
2022-08-17T04:41:39.432Z,55.33
2022-08-17T04:44:11.731Z,55.62
2022-08-17T04:46:40.119Z,55.36
2022-08-17T04:49:10.830Z,54.79
2022-08-17T04:51:54.704Z,55.15
2022-08-17T04:54:28.082Z,54.55
2022-08-17T04:56:56.175Z,54.11
2022-08-17T04:59:24.236Z,54.73
2022-08-17T05:01:53.023Z,53.79
2022-08-17T05:04:34.901Z,54.39
2022-08-17T05:07:04.510Z,54.60
2022-08-17T05:09:33.449Z,54.21
2022-08-17T05:12:01.703Z,55.04
2022-08-17T05:14:32.942Z,55.23
2022-08-17T05:17:02.058Z,55.59
2022-08-17T05:19:38.815Z,55.51
2022-08-17T05:22:07.523Z,55.27
2022-08-17T05:24:42.543Z,54.07
2022-08-17T05:27:18.808Z,54.30
2022-08-17T05:29:47.196Z,54.42
2022-08-17T05:32:38.580Z,54.67
2022-08-17T05:35:06.396Z,54.27
2022-08-17T05:37:34.564Z,54.34
2022-08-17T05:40:02.531Z,54.33
2022-08-17T05:42:30.526Z,53.92
2022-08-17T05:44:58.901Z,54.00
2022-08-17T05:47:28.103Z,54.00
2022-08-17T05:49:56.278Z,54.47
2022-08-17T05:52:41.055Z,54.14
2022-08-17T05:55:19.356Z,55.56
2022-08-17T05:58:07.544Z,55.19
2022-08-17T06:00:44.118Z,54.74
2022-08-17T06:03:26.243Z,53.43
2022-08-17T06:06:18.168Z,52.88
2022-08-17T06:08:55.047Z,54.95
2022-08-17T06:11:29.804Z,55.45
2022-08-17T06:14:14.526Z,54.57
2022-08-17T06:16:51.809Z,57.54
2022-08-17T06:19:28.700Z,55.16
2022-08-17T06:21:57.176Z,54.16
2022-08-17T06:24:31.385Z,53.53
2022-08-17T06:27:08.196Z,54.11
2022-08-17T06:29:45.571Z,54.51
2022-08-17T06:32:14.496Z,55.14
2022-08-17T06:34:44.598Z,53.99
2022-08-17T06:37:31.073Z,53.74
2022-08-17T06:40:11.057Z,55.22
2022-08-17T06:43:06.180Z,54.81
2022-08-17T06:45:40.549Z,54.55
2022-08-17T06:48:16.022Z,54.72
2022-08-17T06:50:48.573Z,54.13
2022-08-17T06:53:23.209Z,52.63
2022-08-17T06:55:59.838Z,53.34
2022-08-17T06:58:31.860Z,53.31
2022-08-17T07:01:06.637Z,52.53
2022-08-17T07:03:39.549Z,54.10
2022-08-17T07:06:13.473Z,53.07
2022-08-17T07:08:56.200Z,53.14
2022-08-17T07:11:28.331Z,53.47
2022-08-17T07:14:04.314Z,53.31
2022-08-17T07:16:39.314Z,53.35
2022-08-17T07:19:08.064Z,53.38
2022-08-17T07:21:54.992Z,53.05
2022-08-17T07:24:37.258Z,53.54
2022-08-17T07:27:16.144Z,53.52
2022-08-17T07:29:49.428Z,53.49
2022-08-17T07:32:23.198Z,52.45
2022-08-17T07:35:21.124Z,52.60
2022-08-17T07:37:54.136Z,52.89
2022-08-17T07:40:27.984Z,52.18
2022-08-17T07:43:23.044Z,52.15
2022-08-17T07:46:26.824Z,53.02
2022-08-17T07:48:57.053Z,51.91
2022-08-17T07:51:28.582Z,52.13
2022-08-17T07:54:13.613Z,51.73
2022-08-17T07:56:46.535Z,51.64
2022-08-17T07:59:23.302Z,51.49
2022-08-17T08:02:05.871Z,51.57
2022-08-17T08:04:59.212Z,51.36
2022-08-17T08:07:28.871Z,51.08
2022-08-17T08:10:10.684Z,50.97
2022-08-17T08:12:41.023Z,50.17
2022-08-17T08:15:18.953Z,50.15
2022-08-17T08:17:51.733Z,49.73
2022-08-17T08:20:50.898Z,49.54
2022-08-17T08:23:27.440Z,49.11
2022-08-17T08:26:10.152Z,48.84
2022-08-17T08:28:51.140Z,48.24
2022-08-17T08:31:31.470Z,48.01
2022-08-17T08:34:44.441Z,45.89
2022-08-17T08:37:16.575Z,45.94
2022-08-17T08:39:55.423Z,46.79
2022-08-17T08:42:32.870Z,46.28
2022-08-17T08:45:11.928Z,45.87
2022-08-17T08:48:22.781Z,44.67
2022-08-17T08:51:05.195Z,42.72
2022-08-17T08:53:41.951Z,44.02
2022-08-17T08:56:17.362Z,43.66
2022-08-17T08:58:52.912Z,43.44
2022-08-17T09:01:30.480Z,42.92
2022-08-17T09:04:25.141Z,42.88
2022-08-17T09:07:04.370Z,40.34
2022-08-17T09:09:42.120Z,39.41
2022-08-17T09:12:16.806Z,39.26
2022-08-17T09:14:57.606Z,40.73
2022-08-17T09:17:36.519Z,38.62
2022-08-17T09:20:27.716Z,38.01
2022-08-17T09:23:03.373Z,37.29
2022-08-17T09:25:36.181Z,39.32
2022-08-17T09:28:07.835Z,39.97
2022-08-17T09:30:41.948Z,39.08
2022-08-17T09:33:13.760Z,36.43
2022-08-17T09:35:48.945Z,38.39
2022-08-17T09:38:24.143Z,36.09
2022-08-17T09:40:58.390Z,35.99
2022-08-17T09:43:34.982Z,36.83
2022-08-17T09:46:09.432Z,34.73
2022-08-17T09:48:42.820Z,36.56
2022-08-17T09:51:30.459Z,35.64
2022-08-17T09:54:09.683Z,34.16
2022-08-17T09:57:25.862Z,36.92
2022-08-17T10:00:01.167Z,31.95
2022-08-17T10:02:53.516Z,32.92
2022-08-17T10:05:25.348Z,31.00
2022-08-17T10:08:01.832Z,35.02
2022-08-17T10:10:35.015Z,32.86
2022-08-17T10:13:10.568Z,35.26
2022-08-17T10:15:52.177Z,34.67
2022-08-17T10:18:41.727Z,31.61
2022-08-17T10:21:30.910Z,30.83
2022-08-17T10:24:24.839Z,33.56
2022-08-17T10:26:57.483Z,31.78
2022-08-17T10:29:44.145Z,33.99
2022-08-17T10:32:27.250Z,32.90
2022-08-17T10:35:25.914Z,31.14
2022-08-17T10:38:19.583Z,29.71
2022-08-17T10:40:58.591Z,29.79
2022-08-17T10:43:57.902Z,31.24
2022-08-17T10:46:56.256Z,29.39
2022-08-17T10:49:29.358Z,29.20
2022-08-17T10:51:59.929Z,31.64
2022-08-17T10:54:41.772Z,32.95
2022-08-17T11:00:03.734Z,31.06
2022-08-17T11:02:41.315Z,31.06
2022-08-17T11:05:44.229Z,31.77
2022-08-17T11:08:50.359Z,28.21
2022-08-17T11:11:52.526Z,27.70
2022-08-17T11:14:33.358Z,28.89
2022-08-17T11:17:17.388Z,29.55
2022-08-17T11:20:29.908Z,28.90
2022-08-17T11:23:25.490Z,28.27
2022-08-17T11:25:56.424Z,27.48
2022-08-17T11:28:28.908Z,31.44
2022-08-17T11:31:00.254Z,30.97
2022-08-17T11:34:03.434Z,30.88
2022-08-17T11:36:49.356Z,28.31
2022-08-17T11:39:31.654Z,28.04
2022-08-17T11:42:06.537Z,27.42
2022-08-17T11:44:50.488Z,29.33
2022-08-17T11:47:42.648Z,27.35
2022-08-17T11:51:15.724Z,30.36
2022-08-17T11:54:31.260Z,27.63
2022-08-17T11:56:52.785Z,27.61
2022-08-17T11:59:59.424Z,30.82
2022-08-17T12:02:38.831Z,27.24
2022-08-17T12:05:33.090Z,28.60
2022-08-17T12:08:15.157Z,26.88
2022-08-17T12:10:59.071Z,28.32
2022-08-17T12:13:33.977Z,29.18
2022-08-17T12:16:09.902Z,30.96
2022-08-17T12:18:41.778Z,31.03
2022-08-17T12:21:22.878Z,31.29
2022-08-17T12:23:58.876Z,29.45
2022-08-17T12:26:31.382Z,30.18
2022-08-17T12:29:02.138Z,30.68
2022-08-17T12:31:35.988Z,31.28
2022-08-17T12:34:05.183Z,30.16
2022-08-17T12:36:34.576Z,30.62
2022-08-17T12:39:14.114Z,30.56
2022-08-17T12:41:47.354Z,28.83
2022-08-17T12:44:17.700Z,29.98
2022-08-17T12:46:49.750Z,30.57
2022-08-17T12:49:29.884Z,30.49
2022-08-17T12:52:08.014Z,28.74
2022-08-17T12:54:46.688Z,27.85
2022-08-17T12:57:17.844Z,28.31
2022-08-17T12:59:50.019Z,28.34
2022-08-17T13:02:28.301Z,29.55
2022-08-17T13:04:58.057Z,27.70
2022-08-17T13:07:28.356Z,29.10
2022-08-17T13:09:57.738Z,29.21
2022-08-17T13:12:31.771Z,28.71
2022-08-17T13:15:00.268Z,27.01
2022-08-17T13:17:31.710Z,29.02
2022-08-17T13:20:00.325Z,28.01
2022-08-17T13:22:32.392Z,28.42
2022-08-17T13:25:07.016Z,28.31
2022-08-17T13:27:35.158Z,27.21
2022-08-17T13:30:08.156Z,28.18
2022-08-17T13:32:42.985Z,28.07
2022-08-17T13:35:40.041Z,25.99
2022-08-17T13:38:11.777Z,24.33
2022-08-17T13:40:45.100Z,27.03
2022-08-17T13:43:13.280Z,25.99
2022-08-17T13:45:50.883Z,26.90
2022-08-17T13:48:30.224Z,24.14
2022-08-17T13:51:16.187Z,23.29
2022-08-17T13:54:00.255Z,23.33
2022-08-17T13:56:39.923Z,23.36
2022-08-17T13:59:12.281Z,23.09
2022-08-17T14:01:43.498Z,25.90
2022-08-17T14:04:14.227Z,26.21
2022-08-17T14:06:53.033Z,26.42
2022-08-17T14:09:25.013Z,24.16
2022-08-17T14:11:55.757Z,25.71
2022-08-17T14:14:24.743Z,25.57
2022-08-17T14:16:53.566Z,25.65
2022-08-17T14:19:22.081Z,25.57
2022-08-17T14:21:50.943Z,25.45
2022-08-17T14:24:24.533Z,25.08
2022-08-17T14:26:54.058Z,23.47
2022-08-17T14:29:23.256Z,25.20
2022-08-17T14:31:54.460Z,25.31
2022-08-17T14:34:23.242Z,25.34
2022-08-17T14:36:51.510Z,24.86
2022-08-17T14:39:19.942Z,24.65
2022-08-17T14:41:48.521Z,25.02
2022-08-17T14:44:17.940Z,25.06
2022-08-17T14:46:46.261Z,24.45
2022-08-17T14:49:15.581Z,25.12
2022-08-17T14:51:44.557Z,24.81
2022-08-17T14:54:32.965Z,24.79
2022-08-17T14:57:22.319Z,24.82
2022-08-17T14:59:53.376Z,24.69
2022-08-17T15:02:29.703Z,24.80
2022-08-17T15:05:02.809Z,24.59
2022-08-17T15:07:31.500Z,23.55
2022-08-17T15:10:01.523Z,24.71
2022-08-17T15:12:34.272Z,24.85
2022-08-17T15:15:06.252Z,24.71
2022-08-17T15:17:44.376Z,24.69
2022-08-17T15:20:15.927Z,24.94
2022-08-17T15:22:45.077Z,24.60
2022-08-17T15:25:14.450Z,24.81
2022-08-17T15:27:42.892Z,24.67
2022-08-17T15:30:13.415Z,24.26
2022-08-17T15:32:50.727Z,23.44
2022-08-17T15:35:28.086Z,23.18
2022-08-17T15:37:58.198Z,23.47
2022-08-17T15:40:26.713Z,23.66
2022-08-17T15:42:54.765Z,24.20
2022-08-17T15:45:26.426Z,24.23
2022-08-17T15:47:54.972Z,24.33
2022-08-17T15:50:23.048Z,24.53
2022-08-17T15:52:56.858Z,23.89
2022-08-17T15:55:26.659Z,22.46
2022-08-17T15:57:55.220Z,23.56
2022-08-17T16:00:24.690Z,23.36
2022-08-17T16:03:14.042Z,23.23
2022-08-17T16:05:42.416Z,24.00
2022-08-17T16:08:11.199Z,23.84
2022-08-17T16:10:39.197Z,23.93
2022-08-17T16:13:17.635Z,24.42
2022-08-17T16:15:56.999Z,24.39
2022-08-17T16:18:30.831Z,24.10
2022-08-17T16:21:20.408Z,24.13
2022-08-17T16:23:49.212Z,23.04
2022-08-17T16:26:18.015Z,23.38
2022-08-17T16:28:46.562Z,23.39
2022-08-17T16:31:16.627Z,23.36
2022-08-17T16:34:15.674Z,23.13
2022-08-17T16:36:33.162Z,23.12
2022-08-17T16:39:01.418Z,22.87
2022-08-17T16:41:45.075Z,23.25
2022-08-17T16:44:15.293Z,23.21
2022-08-17T16:46:46.061Z,23.80
2022-08-17T16:49:35.796Z,23.87
2022-08-17T16:52:03.943Z,24.25
2022-08-17T16:54:32.576Z,24.52
2022-08-17T16:57:00.561Z,24.81
2022-08-17T16:59:39.399Z,25.11
2022-08-17T17:02:14.543Z,25.24
2022-08-17T17:04:50.160Z,25.44
2022-08-17T17:07:33.846Z,25.40
2022-08-17T17:10:08.081Z,25.20
2022-08-17T17:13:02.397Z,25.65
2022-08-17T17:15:32.485Z,25.93
2022-08-17T17:18:07.085Z,26.28
2022-08-17T17:20:43.701Z,26.33
2022-08-17T17:23:19.449Z,26.69
2022-08-17T17:25:59.628Z,26.86
2022-08-17T17:28:40.490Z,27.21
2022-08-17T17:31:14.766Z,27.69
2022-08-17T17:33:48.816Z,27.76
2022-08-17T17:36:25.970Z,27.50
2022-08-17T17:38:59.254Z,28.62
2022-08-17T17:41:33.853Z,28.24
2022-08-17T17:44:07.465Z,28.54
2022-08-17T17:46:39.452Z,28.58
2022-08-17T17:49:10.561Z,28.76
2022-08-17T17:52:03.601Z,28.82
2022-08-17T17:54:49.563Z,29.28
2022-08-17T17:57:28.668Z,29.69
2022-08-17T18:00:03.090Z,29.87
2022-08-17T18:03:01.892Z,30.25
2022-08-17T18:05:47.875Z,31.53
2022-08-17T18:08:33.877Z,32.69
2022-08-17T18:11:24.019Z,30.75
2022-08-17T18:14:04.624Z,30.67
2022-08-17T18:16:35.097Z,30.85
2022-08-17T18:19:03.111Z,30.74
2022-08-17T18:21:39.550Z,30.98
2022-08-17T18:24:10.547Z,31.61
2022-08-17T18:26:48.260Z,31.51
2022-08-17T18:29:34.350Z,33.15
2022-08-17T18:32:16.592Z,33.26
2022-08-17T18:34:48.004Z,33.86
2022-08-17T18:37:36.612Z,32.40
2022-08-17T18:40:37.498Z,34.07
2022-08-17T18:43:15.060Z,34.31
2022-08-17T18:45:46.965Z,32.96
2022-08-17T18:48:33.295Z,33.36
2022-08-17T18:51:05.737Z,34.04
2022-08-17T18:53:38.833Z,32.88
2022-08-17T18:56:28.108Z,33.14
2022-08-17T18:59:06.078Z,34.77
2022-08-17T19:01:53.910Z,34.47
2022-08-17T19:04:34.709Z,36.01
2022-08-17T19:07:23.186Z,35.58
2022-08-17T19:09:57.177Z,34.93
2022-08-17T19:12:31.926Z,36.03
2022-08-17T19:15:01.514Z,35.86
2022-08-17T19:17:37.187Z,35.40
2022-08-17T19:20:13.212Z,36.38
2022-08-17T19:22:53.954Z,36.07
2022-08-17T19:25:27.213Z,38.12
2022-08-17T19:28:00.600Z,36.54
2022-08-17T19:30:28.934Z,36.32
2022-08-17T19:32:58.341Z,35.52
2022-08-17T19:35:32.789Z,35.32
2022-08-17T19:38:13.175Z,35.58
2022-08-17T19:40:58.629Z,36.43
2022-08-17T19:43:38.455Z,37.42
2022-08-17T19:46:18.576Z,37.55
2022-08-17T19:48:57.591Z,38.20
2022-08-17T19:51:31.323Z,38.34
2022-08-17T19:54:06.772Z,36.96
2022-08-17T19:56:44.277Z,37.89
2022-08-17T19:59:17.134Z,38.92
2022-08-17T20:01:49.817Z,37.71
2022-08-17T20:04:31.860Z,37.78
2022-08-17T20:07:04.192Z,38.92
2022-08-17T20:09:37.503Z,38.41
2022-08-17T20:12:10.686Z,38.67
2022-08-17T20:14:53.441Z,38.90
2022-08-17T20:17:26.001Z,38.61
2022-08-17T20:20:04.787Z,38.28
2022-08-17T20:22:36.794Z,38.73
2022-08-17T20:25:29.881Z,38.39
2022-08-17T20:28:07.291Z,38.73
2022-08-17T20:30:38.648Z,39.30
2022-08-17T20:33:13.136Z,39.01
2022-08-17T20:36:00.447Z,39.05
2022-08-17T20:38:41.959Z,39.18
2022-08-17T20:41:13.115Z,41.76
2022-08-17T20:44:01.584Z,39.69
2022-08-17T20:46:52.643Z,41.04
2022-08-17T20:49:27.602Z,41.69
2022-08-17T20:52:02.587Z,40.44
2022-08-17T20:54:44.816Z,39.77
2022-08-17T20:57:42.990Z,42.54
2022-08-17T21:00:18.195Z,42.60
2022-08-17T21:02:49.575Z,40.38
2022-08-17T21:05:57.186Z,40.37
2022-08-17T21:08:31.715Z,43.49
2022-08-17T21:11:01.291Z,40.53
2022-08-17T21:14:06.629Z,40.57
2022-08-17T21:16:49.237Z,42.88
2022-08-17T21:19:31.259Z,42.84
2022-08-17T21:22:12.194Z,43.04
2022-08-17T21:24:51.738Z,43.20
2022-08-17T21:27:29.904Z,43.61
2022-08-17T21:30:23.189Z,43.33
2022-08-17T21:33:24.970Z,44.30
2022-08-17T21:36:15.963Z,44.19
2022-08-17T21:38:57.812Z,41.27
2022-08-17T21:41:29.506Z,43.48
2022-08-17T21:44:03.661Z,41.92
2022-08-17T21:46:36.808Z,43.17
2022-08-17T21:49:13.313Z,42.25
2022-08-17T21:51:45.332Z,42.51
2022-08-17T21:54:31.826Z,42.72
2022-08-17T21:57:02.460Z,44.94
2022-08-17T21:59:35.676Z,42.55
2022-08-17T22:02:07.144Z,43.67
2022-08-17T22:04:38.698Z,43.25
2022-08-17T22:07:10.623Z,43.19
2022-08-17T22:09:43.656Z,43.17
2022-08-17T22:12:16.088Z,44.31
2022-08-17T22:14:52.486Z,43.02
2022-08-17T22:17:25.042Z,43.42
2022-08-17T22:19:57.300Z,43.61
2022-08-17T22:22:57.734Z,43.89
2022-08-17T22:25:27.067Z,46.47
2022-08-17T22:28:01.088Z,43.82
2022-08-17T22:30:33.447Z,44.11
2022-08-17T22:33:22.134Z,45.32
2022-08-17T22:36:10.406Z,43.98
2022-08-17T22:38:39.300Z,46.81
2022-08-17T22:41:38.144Z,44.07
2022-08-17T22:44:17.181Z,46.92
2022-08-17T22:46:58.796Z,45.35
2022-08-17T22:49:31.254Z,46.76
2022-08-17T22:52:08.776Z,44.47
2022-08-17T22:54:54.951Z,45.64
2022-08-17T22:57:42.873Z,44.16
2022-08-17T23:00:30.081Z,44.47
2022-08-17T23:03:11.266Z,46.87
2022-08-17T23:05:40.849Z,45.73
2022-08-17T23:08:11.335Z,44.14
2022-08-17T23:10:39.533Z,44.10
2022-08-17T23:13:11.731Z,44.11
2022-08-17T23:15:41.072Z,44.22
2022-08-17T23:18:08.934Z,44.14
2022-08-17T23:20:38.251Z,44.43
2022-08-17T23:23:08.923Z,44.68
2022-08-17T23:25:38.312Z,44.80
2022-08-17T23:28:07.891Z,45.12
2022-08-17T23:30:38.148Z,44.88
2022-08-17T23:33:09.475Z,45.06
2022-08-17T23:35:39.770Z,45.12
2022-08-17T23:38:10.054Z,45.10
2022-08-17T23:40:39.979Z,45.03
2022-08-17T23:43:23.623Z,45.41
2022-08-17T23:45:54.975Z,45.50
2022-08-17T23:48:27.823Z,45.33
2022-08-17T23:51:10.577Z,45.56
2022-08-17T23:53:44.069Z,45.51
2022-08-17T23:56:13.661Z,45.80
2022-08-17T23:58:43.127Z,45.65
